Time;durP1;ratioP1;P1;durP2;ratioP2;P2;SDS_P1;SDS_P2;PMS_P1;PMS_P2;Temp;Humidity;BMP_temperature;BMP_pressure;BME280_temperature;BME280_humidity;BME280_pressure;Samples;Min_cycle;Max_cycle;Signal;HPM_P1;HPM_P2
2021/06/11 00:02:16;;;;;;;6.82;4.57;;;22.40;99.90;;;;;;5018138;28;20026;-75
2021/06/11 00:04:42;;;;;;;4.88;4.38;;;22.30;99.90;;;;;;5015847;28;20494;-74
2021/06/11 00:07:07;;;;;;;4.72;4.28;;;22.30;99.90;;;;;;5013314;28;20065;-75
2021/06/11 00:09:33;;;;;;;4.63;4.22;;;22.30;99.90;;;;;;5018009;28;20029;-74
2021/06/11 00:11:59;;;;;;;4.80;4.40;;;22.20;99.90;;;;;;5015325;28;20112;-75
2021/06/11 00:14:24;;;;;;;6.82;4.43;;;22.20;99.90;;;;;;5017636;28;20018;-75
2021/06/11 00:16:50;;;;;;;5.78;4.40;;;22.20;99.90;;;;;;5015964;28;20100;-74
2021/06/11 00:19:15;;;;;;;4.65;4.22;;;22.10;99.90;;;;;;5015672;28;20021;-74
2021/06/11 00:21:41;;;;;;;6.75;5.07;;;22.10;99.90;;;;;;5016026;28;20109;-74
2021/06/11 00:24:07;;;;;;;6.07;5.28;;;22.00;99.90;;;;;;5013307;28;20030;-75
2021/06/11 00:26:32;;;;;;;7.05;4.78;;;22.00;99.90;;;;;;5017191;28;20030;-75
2021/06/11 00:28:58;;;;;;;5.40;4.90;;;22.00;99.30;;;;;;5021337;28;20018;-74
2021/06/11 00:31:24;;;;;;;4.55;4.18;;;21.90;99.70;;;;;;5014717;28;20029;-72
2021/06/11 00:33:50;;;;;;;4.80;4.20;;;21.90;99.80;;;;;;5015533;28;20026;-75
2021/06/11 00:36:15;;;;;;;5.75;4.80;;;21.90;99.90;;;;;;5014763;28;20383;-75
2021/06/11 00:38:41;;;;;;;5.07;4.53;;;21.90;99.90;;;;;;5013552;28;20014;-74
2021/06/11 00:41:07;;;;;;;4.82;4.40;;;21.90;99.90;;;;;;5014496;28;20673;-75
2021/06/11 00:43:32;;;;;;;4.72;4.32;;;21.80;99.90;;;;;;5013736;28;20014;-73
2021/06/11 00:45:58;;;;;;;4.85;4.35;;;21.70;99.90;;;;;;5014613;28;20034;-73
2021/06/11 00:48:23;;;;;;;5.90;4.57;;;21.70;99.90;;;;;;5012581;28;20022;-74
2021/06/11 00:50:49;;;;;;;4.53;4.10;;;21.70;99.90;;;;;;5016315;28;20022;-75
2021/06/11 00:53:16;;;;;;;5.13;4.57;;;21.70;99.90;;;;;;5016871;28;20037;-74
2021/06/11 00:55:44;;;;;;;6.75;5.50;;;21.60;99.90;;;;;;5017896;28;20483;-74
2021/06/11 00:58:15;;;;;;;5.65;5.05;;;21.60;99.90;;;;;;5014313;28;20045;-75
2021/06/11 01:00:42;;;;;;;5.60;5.10;;;21.50;99.90;;;;;;5012955;28;20018;-74
2021/06/11 01:03:08;;;;;;;6.28;5.47;;;21.50;99.90;;;;;;5019600;28;21147;-75
2021/06/11 01:05:34;;;;;;;7.18;5.20;;;21.50;99.90;;;;;;5013273;28;20029;-75
2021/06/11 01:08:01;;;;;;;5.97;5.38;;;21.50;99.90;;;;;;5017867;28;20116;-75
2021/06/11 01:10:27;;;;;;;7.35;5.68;;;21.50;99.90;;;;;;5018967;28;20021;-74
2021/06/11 01:12:55;;;;;;;6.47;5.82;;;21.40;99.90;;;;;;5012852;28;20030;-74
2021/06/11 01:15:22;;;;;;;6.85;5.63;;;21.40;99.90;;;;;;5021491;28;20014;-74
2021/06/11 01:17:49;;;;;;;7.85;5.75;;;21.40;99.90;;;;;;5017465;28;20407;-74
2021/06/11 01:20:17;;;;;;;10.68;6.75;;;21.30;99.90;;;;;;5016793;28;20025;-75
2021/06/11 01:22:59;;;;;;;8.70;6.80;;;21.30;99.90;;;;;;5012735;28;20029;-74
2021/06/11 01:25:37;;;;;;;6.97;6.30;;;21.30;99.90;;;;;;5026396;28;20037;-71
2021/06/11 01:28:05;;;;;;;9.10;6.88;;;21.20;99.90;;;;;;5014704;28;20022;-72
2021/06/11 01:30:32;;;;;;;10.75;7.95;;;21.20;99.90;;;;;;5020142;28;20497;-74
2021/06/11 01:32:59;;;;;;;9.10;7.53;;;21.20;99.90;;;;;;5018707;28;20034;-74
2021/06/11 01:35:47;;;;;;;9.45;8.05;;;21.20;99.90;;;;;;5017450;28;20022;-72
2021/06/11 01:38:17;;;;;;;10.23;7.78;;;21.20;99.90;;;;;;5012751;28;20500;-72
2021/06/11 01:40:44;;;;;;;12.60;8.70;;;21.10;99.90;;;;;;5020896;28;20751;-72
2021/06/11 01:43:10;;;;;;;11.65;9.48;;;21.10;99.90;;;;;;5018940;28;20032;-71
2021/06/11 01:45:37;;;;;;;9.90;8.68;;;21.00;99.90;;;;;;5013600;28;20034;-71
2021/06/11 01:48:03;;;;;;;11.05;9.32;;;21.00;99.90;;;;;;5020954;28;20024;-71
2021/06/11 01:50:32;;;;;;;10.38;8.70;;;20.90;99.90;;;;;;5019860;28;20021;-71
2021/06/11 01:53:01;;;;;;;9.90;8.90;;;21.00;99.90;;;;;;5020110;28;20024;-72
2021/06/11 01:55:28;;;;;;;11.10;9.38;;;20.90;99.90;;;;;;5017932;28;20080;-71
2021/06/11 01:57:56;;;;;;;10.60;8.80;;;20.90;99.90;;;;;;5015932;28;20045;-71
2021/06/11 02:00:22;;;;;;;10.77;9.15;;;20.90;99.90;;;;;;5014927;28;20025;-72
2021/06/11 02:02:49;;;;;;;9.95;8.95;;;20.90;99.90;;;;;;5016704;28;20109;-72
2021/06/11 02:05:16;;;;;;;12.32;9.20;;;20.90;99.90;;;;;;5021190;28;20064;-71
2021/06/11 02:07:43;;;;;;;11.02;9.63;;;20.80;99.90;;;;;;5016764;28;20030;-71
2021/06/11 02:10:11;;;;;;;12.52;10.00;;;20.80;99.90;;;;;;5016715;28;20038;-71
2021/06/11 02:12:38;;;;;;;11.68;9.25;;;20.80;99.90;;;;;;5012830;28;20030;-71
2021/06/11 02:15:07;;;;;;;11.52;9.38;;;20.80;99.90;;;;;;5014352;28;20101;-71
2021/06/11 02:17:37;;;;;;;10.10;9.15;;;20.70;99.90;;;;;;5015661;28;20117;-71
2021/06/11 02:20:05;;;;;;;10.25;8.75;;;20.70;99.90;;;;;;5015608;28;20037;-71
2021/06/11 02:22:32;;;;;;;11.13;9.15;;;20.70;99.90;;;;;;5016716;28;20014;-71
2021/06/11 02:24:58;;;;;;;11.95;10.27;;;20.70;99.90;;;;;;5016344;28;20030;-72
2021/06/11 02:27:23;;;;;;;13.68;10.50;;;20.60;99.90;;;;;;5020347;28;20128;-71
2021/06/11 02:29:49;;;;;;;12.05;10.07;;;20.60;99.90;;;;;;5014533;28;20096;-71
2021/06/11 02:32:16;;;;;;;10.95;9.02;;;20.60;99.90;;;;;;5023840;28;20048;-71
2021/06/11 02:34:41;;;;;;;12.73;9.63;;;20.50;99.90;;;;;;5015578;28;20451;-73
2021/06/11 02:37:07;;;;;;;13.43;10.00;;;20.50;99.90;;;;;;5014745;28;20482;-72
2021/06/11 02:39:32;;;;;;;11.38;9.93;;;20.50;99.90;;;;;;5022438;28;20379;-72
2021/06/11 02:42:03;;;;;;;10.85;9.55;;;20.40;99.90;;;;;;5017033;28;20082;-71
2021/06/11 02:44:32;;;;;;;9.05;8.25;;;20.50;99.90;;;;;;5012216;28;20539;-71
2021/06/11 02:47:13;;;;;;;9.65;8.43;;;20.40;99.90;;;;;;5018948;28;20430;-71
2021/06/11 02:49:58;;;;;;;10.70;8.60;;;20.30;99.90;;;;;;5017491;28;20022;-71
2021/06/11 02:52:27;;;;;;;11.73;9.02;;;20.30;99.90;;;;;;5018432;28;20030;-72
2021/06/11 02:54:58;;;;;;;13.90;10.00;;;20.30;99.90;;;;;;5018157;28;20033;-71
2021/06/11 02:57:52;;;;;;;11.77;9.88;;;20.30;99.90;;;;;;5017773;28;20049;-71
2021/06/11 03:00:20;;;;;;;12.52;10.30;;;20.30;99.90;;;;;;5012983;28;20096;-71
2021/06/11 03:03:03;;;;;;;13.98;10.25;;;20.30;99.90;;;;;;5016708;28;20030;-71
2021/06/11 03:05:29;;;;;;;;;;;20.30;99.90;;;;;;5015382;28;20029;-72
2021/06/11 03:07:57;;;;;;;11.75;10.18;;;20.20;99.90;;;;;;5013430;28;19920;-72
2021/06/11 03:10:29;;;;;;;12.65;10.48;;;20.20;99.90;;;;;;5016710;28;20029;-72
2021/06/11 03:13:00;;;;;;;10.57;9.48;;;20.20;99.90;;;;;;5013861;28;20022;-72
2021/06/11 03:15:29;;;;;;;13.35;9.60;;;20.20;99.90;;;;;;5017237;28;20025;-71
2021/06/11 03:17:58;;;;;;;14.00;10.30;;;20.20;99.90;;;;;;5018715;28;20025;-71
2021/06/11 03:20:28;;;;;;;14.85;10.07;;;20.10;99.90;;;;;;5017827;28;20022;-72
2021/06/11 03:23:18;;;;;;;15.27;11.32;;;20.10;99.90;;;;;;5019213;28;20029;-71
2021/06/11 03:25:53;;;;;;;12.02;10.02;;;20.10;99.90;;;;;;5018026;28;20120;-71
2021/06/11 03:28:22;;;;;;;14.75;10.60;;;20.00;99.90;;;;;;5021269;28;20601;-71
2021/06/11 03:30:59;;;;;;;14.57;9.43;;;20.00;99.90;;;;;;5015822;28;20029;-71
2021/06/11 03:33:29;;;;;;;15.70;10.05;;;20.00;99.90;;;;;;5014580;28;20088;-72
2021/06/11 03:36:01;;;;;;;13.13;9.85;;;19.90;99.90;;;;;;5017062;28;20018;-73
2021/06/11 03:38:30;;;;;;;14.20;10.80;;;19.90;99.90;;;;;;5018416;28;20030;-72
2021/06/11 03:40:57;;;;;;;10.82;9.63;;;19.90;99.90;;;;;;5019312;28;20537;-72
2021/06/11 03:43:23;;;;;;;13.52;10.55;;;19.90;99.90;;;;;;5021290;28;20076;-71
2021/06/11 03:45:50;;;;;;;11.77;9.52;;;19.90;99.90;;;;;;5016243;28;20034;-72
2021/06/11 03:48:16;;;;;;;12.35;10.02;;;19.90;99.90;;;;;;5017692;28;20501;-71
2021/06/11 03:50:47;;;;;;;13.30;10.48;;;19.90;99.90;;;;;;5019091;28;20010;-72
2021/06/11 03:53:15;;;;;;;15.60;11.25;;;19.80;99.90;;;;;;5018954;28;20065;-71
2021/06/11 03:55:44;;;;;;;13.30;9.95;;;19.80;99.90;;;;;;5020748;28;20060;-72
2021/06/11 03:58:36;;;;;;;11.88;8.93;;;19.70;99.90;;;;;;5018959;28;20032;-71
2021/06/11 04:01:03;;;;;;;10.68;9.38;;;19.70;99.90;;;;;;5011553;28;20073;-72
2021/06/11 04:03:29;;;;;;;11.27;10.10;;;19.70;99.90;;;;;;5015018;28;20053;-73
2021/06/11 04:06:06;;;;;;;12.52;9.65;;;19.70;99.90;;;;;;5019763;28;20068;-71
2021/06/11 04:08:34;;;;;;;12.05;9.82;;;19.60;99.90;;;;;;5026826;28;20028;-77
2021/06/11 04:11:01;;;;;;;11.40;9.77;;;19.60;99.90;;;;;;5016774;28;20041;-73
2021/06/11 04:13:49;;;;;;;9.75;8.50;;;19.60;99.90;;;;;;5021676;28;20018;-73
2021/06/11 04:16:31;;;;;;;11.30;9.13;;;19.60;99.90;;;;;;5016555;28;20030;-72
2021/06/11 04:19:00;;;;;;;10.23;8.20;;;19.60;99.90;;;;;;5019216;28;20493;-71
2021/06/11 04:21:31;;;;;;;14.15;9.45;;;19.60;99.90;;;;;;5022377;28;20033;-72
2021/06/11 04:24:01;;;;;;;11.57;8.70;;;19.60;99.90;;;;;;5017025;28;20026;-75
2021/06/11 04:26:29;;;;;;;11.57;9.05;;;19.60;99.90;;;;;;5015220;28;20037;-72
2021/06/11 04:28:59;;;;;;;10.65;8.88;;;19.50;99.90;;;;;;5018987;28;20026;-74
2021/06/11 04:31:28;;;;;;;12.52;8.63;;;19.50;99.90;;;;;;5020841;28;20050;-73
2021/06/11 04:33:54;;;;;;;11.50;8.60;;;19.50;99.90;;;;;;5025944;28;20040;-76
2021/06/11 04:36:19;;;;;;;11.93;9.07;;;19.50;99.90;;;;;;5014806;28;20022;-76
2021/06/11 04:39:07;;;;;;;13.05;9.30;;;19.50;99.90;;;;;;5019349;28;20083;-74
2021/06/11 04:41:32;;;;;;;11.60;8.90;;;19.50;99.90;;;;;;5016571;28;20489;-76
2021/06/11 04:43:59;;;;;;;13.23;8.82;;;19.50;99.90;;;;;;5019173;28;20030;-76
2021/06/11 04:46:25;;;;;;;12.05;8.65;;;19.50;99.90;;;;;;5019469;28;20037;-76
2021/06/11 04:48:51;;;;;;;11.85;9.23;;;19.50;99.90;;;;;;5016775;28;20022;-71
2021/06/11 04:51:17;;;;;;;13.50;9.52;;;19.60;99.90;;;;;;5018761;28;20025;-71
2021/06/11 04:53:43;;;;;;;11.60;10.20;;;19.60;99.90;;;;;;5021761;28;20025;-71
2021/06/11 04:56:08;;;;;;;10.23;9.15;;;19.60;99.90;;;;;;5025476;28;20033;-71
2021/06/11 04:58:39;;;;;;;9.65;8.00;;;19.70;99.90;;;;;;5021551;28;20032;-71
2021/06/11 05:01:05;;;;;;;8.65;7.75;;;19.70;99.90;;;;;;5021993;28;20025;-72
2021/06/11 05:03:31;;;;;;;12.70;8.80;;;19.70;99.90;;;;;;5018739;28;20033;-72
2021/06/11 05:05:57;;;;;;;14.40;9.73;;;19.60;99.90;;;;;;5017101;28;20044;-72
2021/06/11 05:08:22;;;;;;;15.50;10.13;;;19.70;99.90;;;;;;5013330;28;20029;-71
2021/06/11 05:10:48;;;;;;;15.18;11.05;;;19.70;99.90;;;;;;5017516;28;20057;-71
2021/06/11 05:13:14;;;;;;;13.15;10.85;;;19.80;99.90;;;;;;5017206;28;20030;-72
2021/06/11 05:15:39;;;;;;;15.90;11.18;;;19.80;99.90;;;;;;5018243;28;20030;-70
2021/06/11 05:18:06;;;;;;;16.23;11.98;;;19.80;99.90;;;;;;5016008;28;20065;-71
2021/06/11 05:20:32;;;;;;;16.67;11.10;;;19.80;99.90;;;;;;5015996;28;20014;-71
2021/06/11 05:22:58;;;;;;;20.92;12.52;;;19.90;99.90;;;;;;5019004;28;20076;-71
2021/06/11 05:25:24;;;;;;;15.80;11.27;;;19.90;99.90;;;;;;5022179;28;20351;-70
2021/06/11 05:27:50;;;;;;;15.13;10.77;;;19.90;99.90;;;;;;5023861;28;20057;-72
2021/06/11 05:30:17;;;;;;;15.55;10.88;;;19.90;99.90;;;;;;5016206;28;20030;-71
2021/06/11 05:32:44;;;;;;;12.90;11.50;;;20.00;99.90;;;;;;5012664;28;20034;-70
2021/06/11 05:35:10;;;;;;;12.45;10.50;;;19.90;99.90;;;;;;5019014;28;20435;-71
2021/06/11 05:37:35;;;;;;;12.13;10.38;;;19.90;99.90;;;;;;5014939;28;20112;-71
2021/06/11 05:40:01;;;;;;;13.02;10.10;;;19.90;99.90;;;;;;5014730;28;20030;-71
2021/06/11 05:42:26;;;;;;;12.88;9.52;;;20.00;99.90;;;;;;5015043;28;20018;-71
2021/06/11 05:44:52;;;;;;;13.98;10.02;;;20.10;99.90;;;;;;5011093;28;20026;-70
2021/06/11 05:47:17;;;;;;;17.45;10.27;;;20.00;99.90;;;;;;5014603;28;20069;-70
2021/06/11 05:49:43;;;;;;;11.40;9.25;;;20.00;99.90;;;;;;5016767;28;20037;-70
2021/06/11 05:52:09;;;;;;;12.93;8.68;;;20.10;99.90;;;;;;5019823;28;20067;-70
2021/06/11 05:54:34;;;;;;;17.40;9.80;;;20.00;99.90;;;;;;5013841;28;20033;-69
2021/06/11 05:57:00;;;;;;;17.27;10.10;;;20.10;99.90;;;;;;5019282;28;20384;-70
2021/06/11 05:59:25;;;;;;;16.02;9.05;;;20.10;99.90;;;;;;5015570;28;20371;-70
2021/06/11 06:01:51;;;;;;;18.55;10.35;;;20.10;99.90;;;;;;5016648;28;20034;-70
2021/06/11 06:04:16;;;;;;;18.45;9.43;;;20.10;99.90;;;;;;5023683;28;20030;-70
2021/06/11 06:06:42;;;;;;;13.57;9.05;;;20.10;99.90;;;;;;5015452;28;20041;-70
2021/06/11 06:09:08;;;;;;;15.10;9.02;;;20.10;99.90;;;;;;5021056;28;20574;-70
2021/06/11 06:11:33;;;;;;;19.38;10.00;;;20.20;99.90;;;;;;5016590;28;20036;-70
2021/06/11 06:13:59;;;;;;;22.95;10.80;;;20.30;99.90;;;;;;5019938;28;20100;-70
2021/06/11 06:16:24;;;;;;;19.40;9.35;;;20.40;99.90;;;;;;5017888;28;20030;-71
2021/06/11 06:18:51;;;;;;;16.85;9.82;;;20.40;99.90;;;;;;5018925;28;20029;-71
2021/06/11 06:21:17;;;;;;;18.55;9.75;;;20.40;99.90;;;;;;5013417;28;20080;-71
2021/06/11 06:23:42;;;;;;;15.68;9.30;;;20.50;99.90;;;;;;5013039;28;20024;-70
2021/06/11 06:26:08;;;;;;;16.58;8.73;;;20.40;99.90;;;;;;5014990;28;20105;-70
2021/06/11 06:28:34;;;;;;;14.32;8.15;;;20.50;99.90;;;;;;5017480;28;20065;-71
2021/06/11 06:30:59;;;;;;;18.20;9.20;;;20.40;99.90;;;;;;5015499;28;20387;-72
2021/06/11 06:33:25;;;;;;;19.63;9.43;;;20.60;99.90;;;;;;5012013;28;20064;-70
2021/06/11 06:35:51;;;;;;;15.88;7.90;;;20.60;99.90;;;;;;5017409;28;20065;-70
2021/06/11 06:38:16;;;;;;;17.77;8.90;;;20.70;99.90;;;;;;5021605;28;20075;-70
2021/06/11 06:40:45;;;;;;;16.85;9.02;;;20.70;99.90;;;;;;5016942;28;20030;-70
2021/06/11 06:43:12;;;;;;;18.13;8.60;;;20.90;99.90;;;;;;5018227;28;20036;-70
2021/06/11 06:45:38;;;;;;;16.98;7.63;;;21.00;99.90;;;;;;5017979;28;21901;-71
2021/06/11 06:48:04;;;;;;;14.70;7.93;;;21.10;99.90;;;;;;5015779;28;20143;-70
2021/06/11 06:50:30;;;;;;;15.63;8.07;;;21.30;99.90;;;;;;5016108;28;20052;-70
2021/06/11 06:52:56;;;;;;;16.95;8.63;;;21.40;99.90;;;;;;5016032;28;20494;-70
2021/06/11 06:55:23;;;;;;;13.27;7.07;;;21.60;99.90;;;;;;5015595;28;20068;-70
2021/06/11 06:57:49;;;;;;;13.95;7.50;;;21.60;99.90;;;;;;5022769;28;20420;-70
2021/06/11 07:00:15;;;;;;;14.40;8.07;;;21.70;99.90;;;;;;5021719;28;20352;-70
2021/06/11 07:02:41;;;;;;;15.50;7.57;;;21.70;99.90;;;;;;5020820;28;20026;-70
2021/06/11 07:05:08;;;;;;;18.15;7.43;;;21.90;99.90;;;;;;5023296;28;20018;-71
2021/06/11 07:07:34;;;;;;;12.07;7.57;;;22.00;99.90;;;;;;5018634;28;20462;-70
2021/06/11 07:09:59;;;;;;;16.65;8.45;;;22.00;99.90;;;;;;5022326;28;20062;-69
2021/06/11 07:12:26;;;;;;;14.45;7.25;;;22.20;99.90;;;;;;5022131;28;20482;-70
2021/06/11 07:14:53;;;;;;;14.43;8.38;;;22.20;99.90;;;;;;5019742;28;20458;-71
2021/06/11 07:17:18;;;;;;;13.93;7.78;;;22.20;99.90;;;;;;5020309;28;20504;-71
2021/06/11 07:19:44;;;;;;;10.93;7.53;;;22.20;99.90;;;;;;5021548;28;20057;-70
2021/06/11 07:22:10;;;;;;;13.50;7.40;;;22.30;99.90;;;;;;5019990;28;20057;-70
2021/06/11 07:24:37;;;;;;;14.60;8.07;;;22.40;99.90;;;;;;5023879;28;20018;-70
2021/06/11 07:27:04;;;;;;;15.80;8.13;;;22.40;99.90;;;;;;5022149;28;20039;-70
2021/06/11 07:29:29;;;;;;;13.40;7.28;;;22.40;99.90;;;;;;5028251;28;20397;-71
2021/06/11 07:31:55;;;;;;;13.30;6.70;;;22.40;99.90;;;;;;5017800;28;20030;-70
2021/06/11 07:34:21;;;;;;;11.10;6.82;;;22.50;99.90;;;;;;5015878;28;20033;-71
2021/06/11 07:36:46;;;;;;;12.55;7.47;;;22.60;99.90;;;;;;5024739;28;20037;-70
2021/06/11 07:39:12;;;;;;;10.70;6.82;;;22.60;99.90;;;;;;5018215;28;20040;-70
2021/06/11 07:41:38;;;;;;;14.43;7.45;;;22.70;99.90;;;;;;5010393;28;20739;-70
2021/06/11 07:44:04;;;;;;;11.63;7.43;;;22.80;99.90;;;;;;5013483;28;20045;-70
2021/06/11 07:46:36;;;;;;;11.90;7.28;;;22.80;99.90;;;;;;5019864;28;20116;-70
2021/06/11 07:49:02;;;;;;;12.82;7.90;;;23.00;99.90;;;;;;5013950;28;20076;-72
2021/06/11 07:51:27;;;;;;;10.55;7.47;;;23.00;99.90;;;;;;5017110;28;20053;-71
2021/06/11 07:53:53;;;;;;;17.77;9.25;;;23.00;99.90;;;;;;5016256;28;20063;-71
2021/06/11 07:56:20;;;;;;;15.00;8.48;;;23.00;99.90;;;;;;5013541;28;20030;-70
2021/06/11 07:58:45;;;;;;;15.40;8.63;;;23.00;99.90;;;;;;5018487;28;20022;-70
2021/06/11 08:01:11;;;;;;;14.55;8.32;;;23.10;99.90;;;;;;5023896;28;20540;-69
2021/06/11 08:03:36;;;;;;;13.63;7.88;;;23.20;99.90;;;;;;5016637;28;20073;-70
2021/06/11 08:06:02;;;;;;;14.02;9.15;;;23.40;99.90;;;;;;5017329;28;20075;-70
2021/06/11 08:08:27;;;;;;;18.27;8.88;;;23.40;99.90;;;;;;5015907;28;20029;-70
2021/06/11 08:10:54;;;;;;;14.50;8.80;;;23.60;99.90;;;;;;5015832;28;20025;-70
2021/06/11 08:13:20;;;;;;;13.90;8.00;;;23.60;99.90;;;;;;5016236;28;20033;-70
2021/06/11 08:15:46;;;;;;;10.35;8.25;;;23.60;99.90;;;;;;5012332;28;20514;-71
2021/06/11 08:18:11;;;;;;;15.13;8.48;;;23.60;99.90;;;;;;5016276;28;20025;-70
2021/06/11 08:20:38;;;;;;;12.93;8.20;;;23.60;99.90;;;;;;5016321;28;20030;-72
2021/06/11 08:23:05;;;;;;;13.68;7.40;;;23.70;99.90;;;;;;5015472;28;20029;-74
2021/06/11 08:25:32;;;;;;;11.63;6.68;;;23.90;99.90;;;;;;5016376;28;20664;-77
2021/06/11 08:27:58;;;;;;;9.48;5.90;;;23.90;99.90;;;;;;5014119;28;20032;-78
2021/06/11 08:30:24;;;;;;;11.95;6.68;;;24.00;99.90;;;;;;5016147;28;20022;-75
2021/06/11 08:32:53;;;;;;;7.57;5.80;;;24.00;99.90;;;;;;5016118;28;20068;-76
2021/06/11 08:35:19;;;;;;;9.60;6.55;;;24.00;99.90;;;;;;5016671;28;20383;-71
2021/06/11 08:37:46;;;;;;;8.25;6.30;;;24.00;99.90;;;;;;5019055;28;20056;-75
2021/06/11 08:40:14;;;;;;;11.13;6.57;;;24.10;99.90;;;;;;5018767;28;20252;-70
2021/06/11 08:42:42;;;;;;;8.73;5.50;;;23.90;99.90;;;;;;5015834;28;20025;-75
2021/06/11 08:45:08;;;;;;;9.68;4.93;;;24.10;99.90;;;;;;5013509;28;20118;-74
2021/06/11 08:47:36;;;;;;;7.40;4.13;;;24.10;99.90;;;;;;5018534;28;20060;-69
2021/06/11 08:50:03;;;;;;;6.28;4.38;;;24.10;99.90;;;;;;5014781;28;20034;-78
2021/06/11 08:52:29;;;;;;;9.82;5.85;;;24.30;99.90;;;;;;5020413;28;20478;-72
2021/06/11 08:54:56;;;;;;;7.05;4.80;;;24.40;99.90;;;;;;5019575;28;20538;-71
2021/06/11 08:57:23;;;;;;;6.40;4.15;;;24.50;99.90;;;;;;5013848;28;20051;-70
2021/06/11 08:59:52;;;;;;;9.05;4.25;;;24.60;99.90;;;;;;5018990;28;20033;-77
2021/06/11 09:02:17;;;;;;;8.35;5.13;;;24.70;99.90;;;;;;5019473;28;20026;-78
2021/06/11 09:04:47;;;;;;;11.77;5.25;;;24.80;99.90;;;;;;5020450;28;20032;-72
2021/06/11 09:07:29;;;;;;;6.90;5.35;;;24.90;99.90;;;;;;5020805;28;20025;-78
2021/06/11 09:10:05;;;;;;;5.55;4.30;;;24.80;99.90;;;;;;5017710;28;20432;-78
2021/06/11 09:12:31;;;;;;;7.05;4.85;;;24.90;99.90;;;;;;5016674;28;20116;-69
2021/06/11 09:14:58;;;;;;;9.80;5.47;;;25.20;99.90;;;;;;5022967;28;20121;-69
2021/06/11 09:17:34;;;;;;;6.70;4.25;;;25.20;99.90;;;;;;5014047;28;20014;-70
2021/06/11 09:20:06;;;;;;;6.38;3.70;;;25.30;99.90;;;;;;5017161;28;20049;-70
2021/06/11 09:22:48;;;;;;;7.22;3.45;;;25.40;99.90;;;;;;5016559;28;20010;-71
2021/06/11 09:25:29;;;;;;;4.95;3.38;;;25.70;99.90;;;;;;5017257;28;20116;-71
2021/06/11 09:28:13;;;;;;;5.72;3.28;;;25.70;99.90;;;;;;5018591;28;20057;-70
2021/06/11 09:30:39;;;;;;;5.25;2.60;;;25.80;99.90;;;;;;5016767;28;20083;-71
2021/06/11 09:33:07;;;;;;;2.60;2.40;;;26.00;99.90;;;;;;5015814;28;20041;-72
2021/06/11 09:35:40;;;;;;;3.53;2.80;;;26.10;99.90;;;;;;5014298;28;20040;-70
2021/06/11 09:38:14;;;;;;;4.60;2.83;;;26.20;99.90;;;;;;5018196;28;20022;-70
2021/06/11 09:40:46;;;;;;;3.50;3.20;;;26.40;99.90;;;;;;5017229;28;20160;-70
2021/06/11 09:43:12;;;;;;;;;;;26.50;99.90;;;;;;5015763;28;20105;-70
2021/06/11 09:45:38;;;;;;;5.15;3.22;;;26.60;99.90;;;;;;5016650;28;20032;-70
2021/06/11 09:48:24;;;;;;;4.35;2.97;;;26.60;99.60;;;;;;5016501;28;20136;-70
2021/06/11 09:50:51;;;;;;;3.75;2.22;;;26.80;99.80;;;;;;5014364;28;20041;-69
2021/06/11 09:53:22;;;;;;;5.15;2.50;;;26.90;99.90;;;;;;5020320;28;20411;-71
2021/06/11 09:55:51;;;;;;;5.28;3.03;;;27.10;99.90;;;;;;5016817;28;20054;-71
2021/06/11 09:58:33;;;;;;;3.22;2.92;;;27.30;99.90;;;;;;5013055;28;20462;-70
2021/06/11 10:01:10;;;;;;;6.30;2.92;;;27.20;99.60;;;;;;5018237;28;20548;-71
2021/06/11 10:03:38;;;;;;;5.07;3.25;;;27.30;99.10;;;;;;5017505;28;20413;-69
2021/06/11 10:06:09;;;;;;;4.45;3.22;;;27.50;99.40;;;;;;5017313;28;20917;-70
2021/06/11 10:08:36;;;;;;;6.72;2.92;;;27.60;99.00;;;;;;5017387;28;20018;-70
2021/06/11 10:11:04;;;;;;;4.55;2.65;;;27.50;98.70;;;;;;5013769;28;20022;-71
2021/06/11 10:13:30;;;;;;;4.20;2.67;;;27.60;98.00;;;;;;5013974;28;20080;-70
2021/06/11 10:15:59;;;;;;;3.70;2.75;;;27.60;97.50;;;;;;5016123;28;20018;-70
2021/06/11 10:18:24;;;;;;;4.07;2.53;;;27.70;97.50;;;;;;5024146;28;20033;-70
2021/06/11 10:20:51;;;;;;;4.10;2.60;;;27.80;98.00;;;;;;5017741;28;20044;-71
2021/06/11 10:23:19;;;;;;;4.00;2.42;;;27.90;97.60;;;;;;5015967;28;20030;-69
2021/06/11 10:25:51;;;;;;;2.85;2.30;;;28.20;97.90;;;;;;5019502;28;20026;-70
2021/06/11 10:28:20;;;;;;;2.60;2.33;;;28.30;97.20;;;;;;5019513;28;20044;-71
2021/06/11 10:30:47;;;;;;;5.50;3.47;;;28.40;98.20;;;;;;5014471;28;20132;-70
2021/06/11 10:33:13;;;;;;;3.83;2.80;;;28.40;96.30;;;;;;5025734;28;20051;-70
2021/06/11 10:35:47;;;;;;;3.50;3.20;;;28.50;97.10;;;;;;5019559;28;20033;-70
2021/06/11 10:38:34;;;;;;;3.70;2.70;;;28.60;97.50;;;;;;5018628;28;20056;-70
2021/06/11 10:41:02;;;;;;;3.28;2.47;;;28.80;96.30;;;;;;5022400;28;20145;-70
2021/06/11 10:43:32;;;;;;;5.80;3.20;;;28.90;97.00;;;;;;5020538;28;20121;-70
2021/06/11 10:45:58;;;;;;;4.15;2.95;;;28.90;96.00;;;;;;5022529;28;20077;-70
2021/06/11 10:48:25;;;;;;;7.00;3.08;;;28.80;96.70;;;;;;5020927;28;20061;-70
2021/06/11 10:50:51;;;;;;;5.15;3.10;;;28.70;96.70;;;;;;5024233;28;20112;-71
2021/06/11 10:53:27;;;;;;;5.10;3.30;;;28.40;96.80;;;;;;5025121;28;20096;-70
2021/06/11 10:56:14;;;;;;;7.60;3.40;;;28.30;96.60;;;;;;5024214;28;20083;-69
2021/06/11 10:58:55;;;;;;;3.33;2.88;;;28.30;96.80;;;;;;5004231;28;20494;-70
2021/06/11 11:01:29;;;;;;;4.38;3.30;;;28.60;96.30;;;;;;5027419;28;20021;-70
2021/06/11 11:04:16;;;;;;;4.15;3.10;;;28.70;95.70;;;;;;5022814;28;20386;-69
2021/06/11 11:06:41;;;;;;;3.47;3.17;;;28.70;96.10;;;;;;5020649;28;20032;-70
2021/06/11 11:09:07;;;;;;;3.75;3.13;;;28.70;97.20;;;;;;5020581;28;20026;-70
2021/06/11 11:11:36;;;;;;;3.78;2.65;;;28.70;94.80;;;;;;5024529;28;20028;-69
2021/06/11 11:14:03;;;;;;;3.25;3.00;;;28.80;94.90;;;;;;5027032;28;20026;-70
2021/06/11 11:16:34;;;;;;;3.38;2.45;;;28.80;95.10;;;;;;5023871;28;20022;-71
2021/06/11 11:19:00;;;;;;;2.40;2.20;;;28.80;94.70;;;;;;5024963;28;20474;-70
2021/06/11 11:21:30;;;;;;;4.05;2.75;;;29.00;95.00;;;;;;5024719;28;20112;-70
2021/06/11 11:23:59;;;;;;;3.33;2.47;;;29.20;94.70;;;;;;5018843;28;20030;-69
2021/06/11 11:26:57;;;;;;;4.00;2.47;;;29.40;94.00;;;;;;5023943;28;20032;-70
2021/06/11 11:29:22;;;;;;;3.85;3.22;;;29.50;92.90;;;;;;4985968;28;20052;-69
2021/06/11 11:31:49;;;;;;;5.55;2.13;;;29.40;93.70;;;;;;5022362;28;20463;-70
2021/06/11 11:34:15;;;;;;;5.40;2.78;;;29.50;92.30;;;;;;5022712;28;20548;-71
2021/06/11 11:36:41;;;;;;;3.60;3.17;;;29.60;93.70;;;;;;5026344;28;20104;-70
2021/06/11 11:39:12;;;;;;;3.80;3.50;;;29.70;93.80;;;;;;5023934;28;20116;-70
2021/06/11 11:41:39;;;;;;;3.75;2.80;;;29.80;93.60;;;;;;5030476;28;20018;-70
2021/06/11 11:44:05;;;;;;;3.88;3.13;;;29.80;93.00;;;;;;5022717;28;20466;-71
2021/06/11 11:46:32;;;;;;;4.07;2.40;;;29.80;93.20;;;;;;5019996;28;20124;-70
2021/06/11 11:48:57;;;;;;;2.75;2.30;;;29.90;92.00;;;;;;5015095;28;20026;-71
2021/06/11 11:51:23;;;;;;;4.18;2.70;;;30.00;91.40;;;;;;5020782;28;20048;-70
2021/06/11 11:53:49;;;;;;;3.55;2.25;;;30.10;92.70;;;;;;5023999;28;20025;-71
2021/06/11 11:56:15;;;;;;;2.78;2.25;;;30.10;92.00;;;;;;5020954;28;20067;-71
2021/06/11 11:58:40;;;;;;;2.95;2.65;;;30.20;92.50;;;;;;5021075;28;20382;-69
2021/06/11 12:01:06;;;;;;;3.05;2.28;;;30.20;92.50;;;;;;5019955;28;20034;-71
2021/06/11 12:03:32;;;;;;;2.55;2.30;;;30.10;92.40;;;;;;5020381;28;20029;-70
2021/06/11 12:05:57;;;;;;;3.05;2.33;;;30.30;92.30;;;;;;5020645;28;20096;-71
2021/06/11 12:08:23;;;;;;;4.03;2.55;;;30.20;90.70;;;;;;5017755;28;20441;-70
2021/06/11 12:10:49;;;;;;;4.65;2.25;;;30.30;91.00;;;;;;5016290;28;20113;-71
2021/06/11 12:13:15;;;;;;;2.50;2.13;;;30.30;91.30;;;;;;5016443;28;20033;-70
2021/06/11 12:15:41;;;;;;;3.47;2.80;;;30.40;92.00;;;;;;5017818;28;20025;-70
2021/06/11 12:18:06;;;;;;;2.50;2.30;;;30.50;91.80;;;;;;5018220;28;20056;-70
2021/06/11 12:20:33;;;;;;;3.00;2.67;;;30.50;91.90;;;;;;5021499;28;20087;-70
2021/06/11 12:23:00;;;;;;;3.55;2.50;;;30.60;92.00;;;;;;5020006;28;20034;-71
2021/06/11 12:25:26;;;;;;;4.20;2.50;;;30.60;91.90;;;;;;5019291;28;20077;-69
2021/06/11 12:27:52;;;;;;;3.70;2.38;;;30.30;91.20;;;;;;5019385;28;20037;-70
2021/06/11 12:30:18;;;;;;;3.88;2.55;;;30.30;92.20;;;;;;5016904;28;20462;-70
2021/06/11 12:32:45;;;;;;;4.65;2.65;;;30.30;91.60;;;;;;5020085;28;20036;-70
2021/06/11 12:35:11;;;;;;;6.60;2.92;;;30.40;92.10;;;;;;5022826;28;20300;-70
2021/06/11 12:37:37;;;;;;;5.13;3.13;;;30.50;91.60;;;;;;5021934;28;20022;-70
2021/06/11 12:40:04;;;;;;;5.53;2.83;;;30.70;92.50;;;;;;5015077;28;20038;-70
2021/06/11 12:42:36;;;;;;;7.47;3.45;;;30.70;91.80;;;;;;5020344;28;20107;-71
2021/06/11 12:45:03;;;;;;;3.83;2.97;;;30.70;91.60;;;;;;5017241;28;20029;-70
2021/06/11 12:47:29;;;;;;;5.63;3.63;;;30.80;92.00;;;;;;5018461;28;20245;-70